NORTHEAST SUFFOLK  -  Winter Storm Watch Winter Storm Watch        NORTHERN NASSAU  -  Winter Storm Watch Winter Storm Watch        NORTHERN QUEENS  -  Winter Storm Watch Winter Storm Watch        NORTHWEST SUFFOLK  -  Winter Storm Watch Winter Storm Watch        SOUTHEAST SUFFOLK  -  Winter Storm Watch Winter Storm Watch        SOUTHERN NASSAU  -  Winter Storm Watch Winter Storm Watch        SOUTHERN QUEENS  -  Winter Storm Watch Winter Storm Watch        SOUTHWEST SUFFOLK  -  Winter Storm Watch Winter Storm Watch      

Active alerts

Northern Queens
  Details for Northern Queens Winter Storm Watch
Southern Queens
  Details for Southern Queens Winter Storm Watch
Northern Nassau
  Details for Northern Nassau Winter Storm Watch
Southern Nassau
  Details for Southern Nassau Winter Storm Watch
Northwest Suffolk
  Details for Northwest Suffolk Winter Storm Watch
Southwest Suffolk
  Details for Southwest Suffolk Winter Storm Watch
Northeast Suffolk
  Details for Northeast Suffolk Winter Storm Watch
Southeast Suffolk
  Details for Southeast Suffolk Winter Storm Watch


WXM80 ListenWXM80 Stop

You find our weather info also at:

UK Metoffice

WeatherCloud

Weather Underground

Northeastern Weather Network

AWEKAS

Citizen Weather Observer Program (CWOP)

HAMweather, WeatherForYou, PWS Weather


Weather Underground History page Text

Daily Summary for March 14, 2017 Units:  Metric    English   Both
« Previous Day
Next Day »
Daily Weekly Monthly Yearly Custom
  High: Low: Average:
Temperature: 1.7 °C -4.5 °C -0.5 °C
Dew Point: 1.4 °C -8.3 °C -1.8 °C
Humidity: 98 % 74 % 91 %
Wind Speed: 45.1 km/h 4 km/h 21.1 km/h
Wind Gust: 62.9 km/h - -
Wind:- - SSE
Pressure: 1024.3 hPa 981.3 hPa -
Precipitation: 0 mm    
Historical Graphs
 
 
Tabular Data for March 14, 2017
Time Temperature Dew Point Pressure Wind Wind Speed Wind Gust Humidity Rainfall Rate (Hourly)
00:00 -0.9 °C -5 °C 1024.3 hPa East 6.1 km/h 9.3 km/h 74 % 0 mm
00:05 -0.9 °C -4.8 °C 1024.3 hPa East 11.6 km/h 14.5 km/h 75 % 0 mm
00:10 -0.9 °C -4.9 °C 1023.9 hPa East 9.7 km/h 16.7 km/h 74 % 0 mm
00:15 -0.9 °C -4.8 °C 1023.9 hPa East 10.9 km/h 14.8 km/h 75 % 0 mm
00:20 -0.8 °C -4.7 °C 1023.2 hPa East 13.2 km/h 16.7 km/h 75 % 0 mm
00:25 -0.8 °C -4.8 °C 1023.6 hPa East 10.9 km/h 13 km/h 74 % 0 mm
00:30 -0.7 °C -4.8 °C 1023.6 hPa East 11.1 km/h 16.7 km/h 74 % 0 mm
00:35 -0.7 °C -4.8 °C 1023.6 hPa East 9.2 km/h 14.8 km/h 74 % 0 mm
00:40 -0.7 °C -4.8 °C 1023.6 hPa East 8.2 km/h 14.8 km/h 74 % 0 mm
00:45 -0.7 °C -4.7 °C 1023.2 hPa East 8.9 km/h 13 km/h 74 % 0 mm
00:50 -0.7 °C -4.6 °C 1023.2 hPa East 7.1 km/h 11.3 km/h 75 % 0 mm
00:55 -0.7 °C -4.6 °C 1023.2 hPa East 5.1 km/h 13 km/h 75 % 0 mm
01:00 -0.7 °C -4.7 °C 1023.6 hPa East 4 km/h 8 km/h 74 % 0 mm
01:05 -0.7 °C -4.7 °C 1023.6 hPa East 6 km/h 11.1 km/h 74 % 0 mm
01:10 -0.7 °C -4.7 °C 1023.6 hPa East 6 km/h 9.3 km/h 74 % 0 mm
01:15 -0.7 °C -4.7 °C 1023.2 hPa East 8.7 km/h 11.1 km/h 74 % 0 mm
01:20 -0.7 °C -4.7 °C 1023.2 hPa East 8.2 km/h 11.3 km/h 74 % 0 mm
01:25 -0.6 °C -4.7 °C 1023.2 hPa East 9 km/h 12.9 km/h 74 % 0 mm
01:30 -0.6 °C -4.6 °C 1022.9 hPa East 10.3 km/h 16.7 km/h 74 % 0 mm
01:35 -0.5 °C -4.6 °C 1022.9 hPa East 8.4 km/h 12.9 km/h 74 % 0 mm
01:40 -0.5 °C -4.6 °C 1022.6 hPa East 9.5 km/h 14.8 km/h 74 % 0 mm
01:45 -0.4 °C -4.3 °C 1022.6 hPa East 9.8 km/h 12.9 km/h 75 % 0 mm
01:50 -0.4 °C -4.3 °C 1022.6 hPa East 14 km/h 18.5 km/h 75 % 0 mm
01:55 -0.3 °C -4.2 °C 1022.6 hPa East 14.5 km/h 16.7 km/h 75 % 0 mm
02:00 -0.3 °C -4.4 °C 1022.6 hPa East 14.2 km/h 18.5 km/h 74 % 0 mm
02:05 -0.3 °C -4.2 °C 1022.2 hPa East 17.9 km/h 22.2 km/h 75 % 0 mm
02:10 -0.3 °C -3.9 °C 1022.2 hPa East 15.8 km/h 22.2 km/h 77 % 0 mm
02:15 -0.3 °C -3.9 °C 1022.2 hPa ENE 13.8 km/h 18.5 km/h 77 % 0 mm
02:20 -0.3 °C -3.6 °C 1021.6 hPa East 16.4 km/h 18.5 km/h 79 % 0 mm
02:25 -0.4 °C -3.5 °C 1021.6 hPa East 17.7 km/h 24.1 km/h 80 % 0 mm
02:30 -0.7 °C -3.5 °C 1021.6 hPa ESE 17.2 km/h 22.2 km/h 81 % 0 mm
02:35 -0.7 °C -3.4 °C 1021.2 hPa East 15.9 km/h 22.2 km/h 82 % 0 mm
02:40 -0.8 °C -3.3 °C 1021.2 hPa East 17.7 km/h 20.9 km/h 83 % 0 mm
02:46 -0.8 °C -3.1 °C 1021.2 hPa East 19.6 km/h 24.1 km/h 85 % 0 mm
02:51 -0.9 °C -2.9 °C 1020.9 hPa East 16.7 km/h 20.9 km/h 86 % 0 mm
02:52 -0.9 °C -2.9 °C 1020.9 hPa East 17.5 km/h 20.4 km/h 86 % 0 mm
02:57 -0.9 °C -2.7 °C 1020.2 hPa East 17.9 km/h 18.5 km/h 88 % 0 mm
03:02 -1 °C -2.6 °C 1019.9 hPa ENE 17.4 km/h 20.9 km/h 89 % 0 mm
03:07 -1.1 °C -2.5 °C 1019.9 hPa ENE 18.5 km/h 24.1 km/h 90 % 0 mm
03:12 -1.1 °C -2.3 °C 1019.9 hPa ESE 18.3 km/h 19.3 km/h 91 % 0 mm
03:17 -1.1 °C -2.2 °C 1019.5 hPa East 17.9 km/h 22.5 km/h 92 % 0 mm
03:22 -1.1 °C -2.2 °C 1019.2 hPa ENE 19.6 km/h 25.7 km/h 92 % 0 mm
03:27 -1.1 °C -2.2 °C 1019.2 hPa East 17.4 km/h 27.8 km/h 92 % 0 mm
03:32 -1.1 °C -2.2 °C 1018.8 hPa East 18.5 km/h 24.1 km/h 92 % 0 mm
03:37 -1.1 °C -2.1 °C 1018.8 hPa ENE 17.7 km/h 25.9 km/h 93 % 0 mm
03:42 -1.2 °C -2.2 °C 1018.5 hPa East 22 km/h 24.1 km/h 93 % 0 mm
03:47 -1.2 °C -2.2 °C 1018.2 hPa ENE 17.7 km/h 27.8 km/h 93 % 0 mm
03:52 -1.2 °C -2.2 °C 1017.8 hPa East 20.8 km/h 29.6 km/h 93 % 0 mm
03:57 -1.2 °C -2 °C 1017.5 hPa East 20.6 km/h 22.5 km/h 94 % 0 mm
04:02 -1.2 °C -2 °C 1017.5 hPa East 21.7 km/h 29 km/h 94 % 0 mm
04:07 -1.1 °C -1.9 °C 1017.5 hPa ENE 22.5 km/h 31.5 km/h 94 % 0.25 mm
04:12 -1.1 °C -1.9 °C 1016.8 hPa East 21.4 km/h 27.8 km/h 94 % 0.25 mm
04:17 -0.9 °C -1.8 °C 1016.8 hPa East 25.1 km/h 40.7 km/h 94 % 0.25 mm
04:22 -0.9 °C -1.8 °C 1016.5 hPa East 20.4 km/h 25.9 km/h 94 % 0.25 mm
04:27 -0.9 °C -1.6 °C 1016.1 hPa East 22.4 km/h 27.8 km/h 95 % 0.25 mm
04:32 -0.8 °C -1.6 °C 1016.1 hPa ENE 22.5 km/h 27.8 km/h 95 % 0.25 mm
04:37 -0.9 °C -1.6 °C 1015.8 hPa East 24.6 km/h 29.6 km/h 95 % 0.25 mm
04:42 -0.9 °C -1.7 °C 1015.8 hPa East 23 km/h 29 km/h 95 % 0.25 mm
04:47 -0.9 °C -1.6 °C 1015.5 hPa ENE 28.6 km/h 38.9 km/h 95 % 0.25 mm
04:52 -0.8 °C -1.6 °C 1015.1 hPa East 23.5 km/h 33.3 km/h 95 % 0.51 mm
04:57 -0.8 °C -1.5 °C 1015.1 hPa East 24.1 km/h 35.2 km/h 95 % 0.51 mm
05:02 -0.8 °C -1.5 °C 1014.8 hPa East 30.3 km/h 42.6 km/h 95 % 0.51 mm
05:07 -0.7 °C -1.4 °C 1014.8 hPa NE 25.9 km/h 33.3 km/h 95 % 0.25 mm
05:13 -0.6 °C -1.3 °C 1014.8 hPa East 22.2 km/h 25.9 km/h 95 % 0.25 mm
05:18 -0.5 °C -1.2 °C 1014.8 hPa East 25.4 km/h 31.5 km/h 95 % 0.25 mm
05:23 -0.4 °C -1.2 °C 1014.4 hPa ENE 23.8 km/h 33.3 km/h 95 % 0.25 mm
05:28 -0.4 °C -1.2 °C 1014.1 hPa ENE 26.6 km/h 37 km/h 95 % 0.25 mm
05:33 -0.4 °C -1.2 °C 1014.1 hPa ENE 26.2 km/h 38.9 km/h 95 % 0.25 mm
05:35 -0.4 °C -0.9 °C 1013.8 hPa ENE 24.6 km/h 31.5 km/h 96 % 0.25 mm
05:40 -0.3 °C -0.9 °C 1013.4 hPa ENE 23.7 km/h 33.8 km/h 96 % 0.51 mm
05:41 -0.3 °C -0.8 °C 1013.4 hPa ENE 26.4 km/h 32.2 km/h 96 % 0.51 mm
05:46 -0.2 °C -0.8 °C 1013.4 hPa ENE 24.8 km/h 40.7 km/h 96 % 0.51 mm
05:51 -0.2 °C -0.7 °C 1013.4 hPa East 33.3 km/h 38.9 km/h 96 % 0.25 mm
05:56 -0.2 °C -0.7 °C 1013.1 hPa NE 23 km/h 33.3 km/h 96 % 0.25 mm
06:01 -0.2 °C -0.7 °C 1013.1 hPa ENE 31.2 km/h 44.4 km/h 96 % 0.25 mm
06:06 -0.2 °C -0.8 °C 1012.8 hPa East 27.4 km/h 27.8 km/h 96 % 0.25 mm
06:11 -0.3 °C -0.8 °C 1012.4 hPa East 30.6 km/h 50 km/h 96 % 0.51 mm
06:16 -0.2 °C -0.8 °C 1012.4 hPa ENE 27 km/h 38.9 km/h 96 % 0.51 mm
06:21 -0.2 °C -0.8 °C 1012.1 hPa ENE 27.8 km/h 38.9 km/h 96 % 0.51 mm
06:26 -0.3 °C -0.8 °C 1011.7 hPa ENE 30.1 km/h 43.5 km/h 96 % 0.51 mm
06:31 -0.3 °C -0.8 °C 1011.4 hPa East 32.5 km/h 42.6 km/h 96 % 0.51 mm
06:36 -0.3 °C -0.8 °C 1011.4 hPa ENE 27.5 km/h 38.9 km/h 96 % 0.76 mm
06:41 -0.3 °C -0.8 °C 1011.1 hPa ENE 33.6 km/h 44.4 km/h 96 % 0.51 mm
06:46 -0.3 °C -0.8 °C 1010.7 hPa ENE 30.3 km/h 35.4 km/h 96 % 0.51 mm
06:51 -0.3 °C -0.9 °C 1010.4 hPa ENE 34.9 km/h 48.3 km/h 96 % 0.51 mm
06:56 -0.3 °C -0.9 °C 1010.4 hPa NE 31.9 km/h 42.6 km/h 96 % 0.51 mm
07:02 -0.4 °C -0.9 °C 1010 hPa East 34 km/h 42.6 km/h 96 % 0.51 mm
07:07 -0.4 °C -0.9 °C 1010 hPa ENE 30.7 km/h 42.6 km/h 96 % 0.76 mm
07:12 -0.5 °C -1.1 °C 1009.7 hPa ENE 34.4 km/h 46.3 km/h 96 % 0.51 mm
07:17 -0.5 °C -1.1 °C 1009.4 hPa East 35.1 km/h 45.1 km/h 96 % 0.51 mm
07:22 -0.5 °C -1.1 °C 1009.7 hPa ENE 35.7 km/h 44.4 km/h 96 % 0.51 mm
07:27 -0.5 °C -1.1 °C 1009.4 hPa ENE 33.8 km/h 44.4 km/h 96 % 0.76 mm
07:32 -0.4 °C -1 °C 1009 hPa NE 30.9 km/h 42.6 km/h 96 % 0.76 mm
07:37 -0.4 °C -1 °C 1009 hPa East 29.9 km/h 42.6 km/h 96 % 0.51 mm
07:42 -0.3 °C -0.8 °C 1009 hPa ENE 29.1 km/h 42.6 km/h 97 % 0.76 mm
07:47 -0.3 °C -0.8 °C 1009 hPa ENE 34.8 km/h 46.3 km/h 97 % 1.02 mm
07:48 -0.3 °C -0.8 °C 1008.7 hPa ENE 30.9 km/h 46.3 km/h 97 % 1.02 mm
07:53 -0.3 °C -0.8 °C 1008.7 hPa NE 37.3 km/h 55.5 km/h 97 % 1.27 mm
07:58 -0.3 °C -0.7 °C 1008.4 hPa ENE 35.9 km/h 48.1 km/h 97 % 1.52 mm
08:03 -0.3 °C -0.7 °C 1008 hPa NE 31.1 km/h 46.3 km/h 97 % 1.78 mm
08:08 -0.2 °C -0.7 °C 1008 hPa East 30.4 km/h 48.1 km/h 97 % 2.03 mm
08:13 -0.2 °C -0.7 °C 1008 hPa ENE 31.4 km/h 42.6 km/h 97 % 2.29 mm
08:18 -0.3 °C -0.7 °C 1008 hPa East 38 km/h 46.3 km/h 97 % 2.54 mm
08:20 -0.3 °C -0.7 °C 1007.7 hPa NE 34.4 km/h 50 km/h 97 % 2.54 mm
08:25 -0.2 °C -0.7 °C 1007.7 hPa East 31.7 km/h 40.7 km/h 97 % 2.54 mm
08:30 -0.3 °C -0.7 °C 1007.7 hPa ENE 28.5 km/h 42.6 km/h 97 % 2.54 mm
08:35 -0.3 °C -0.7 °C 1007.3 hPa ENE 28 km/h 46.3 km/h 97 % 2.79 mm
08:40 -0.3 °C -0.7 °C 1007 hPa ENE 34 km/h 46.3 km/h 97 % 2.79 mm
08:45 -0.3 °C -0.7 °C 1006.7 hPa ENE 33.5 km/h 42.6 km/h 97 % 2.54 mm
08:50 -0.3 °C -0.7 °C 1006.3 hPa East 33.5 km/h 42.6 km/h 97 % 2.54 mm
08:55 -0.3 °C -0.7 °C 1006 hPa East 35.9 km/h 46.3 km/h 97 % 2.54 mm
09:00 -0.3 °C -0.7 °C 1005.6 hPa ENE 39.4 km/h 50 km/h 97 % 2.29 mm
09:05 -0.3 °C -0.7 °C 1005.6 hPa ENE 30.7 km/h 40.7 km/h 97 % 2.29 mm
09:10 -0.3 °C -0.7 °C 1005.3 hPa ENE 35.7 km/h 57.5 km/h 97 % 2.29 mm
09:15 -0.3 °C -0.7 °C 1005 hPa East 35.2 km/h 46.7 km/h 97 % 2.03 mm
09:20 -0.3 °C -0.7 °C 1004.6 hPa East 41 km/h 55.5 km/h 97 % 2.03 mm
09:25 -0.3 °C -0.7 °C 1004.3 hPa ENE 35.4 km/h 53.8 km/h 97 % 2.03 mm
09:30 -0.3 °C -0.7 °C 1003.6 hPa ENE 36 km/h 50 km/h 97 % 2.29 mm
09:35 -0.2 °C -0.7 °C 1003.3 hPa ENE 37.8 km/h 44.4 km/h 97 % 2.29 mm
09:40 -0.2 °C -0.7 °C 1002.9 hPa ENE 32.7 km/h 43.5 km/h 97 % 2.03 mm
09:45 -0.2 °C -0.6 °C 1002.3 hPa ENE 35.4 km/h 50 km/h 97 % 2.29 mm
09:50 -0.2 °C -0.6 °C 1001.9 hPa ENE 36.7 km/h 62.9 km/h 97 % 2.29 mm
09:55 -0.1 °C -0.6 °C 1001.6 hPa ENE 34.8 km/h 50 km/h 97 % 2.29 mm
10:00 -0.1 °C -0.5 °C 1000.9 hPa East 32.8 km/h 53.1 km/h 97 % 2.54 mm
10:06 0 °C -0.4 °C 999.5 hPa East 38.5 km/h 50 km/h 97 % 2.54 mm
10:11 0 °C -0.4 °C 998.9 hPa NE 33.2 km/h 56.3 km/h 97 % 2.29 mm
10:16 0.1 °C -0.4 °C 998.9 hPa ENE 29.1 km/h 44.4 km/h 97 % 2.54 mm
10:21 0.2 °C -0.3 °C 998.2 hPa ENE 33 km/h 48.1 km/h 97 % 2.54 mm
10:26 0.2 °C -0.2 °C 997.5 hPa East 34.6 km/h 61.2 km/h 97 % 2.54 mm
10:31 0.3 °C -0.2 °C 997.2 hPa ENE 45.1 km/h 54.7 km/h 97 % 2.54 mm
10:36 0.3 °C -0.1 °C 996.8 hPa East 32.7 km/h 55.5 km/h 97 % 2.54 mm
10:41 0.4 °C 0 °C 996.2 hPa ENE 37 km/h 50 km/h 97 % 2.54 mm
10:46 0.4 °C 0 °C 996.2 hPa ENE 39.4 km/h 48.1 km/h 97 % 2.54 mm
10:51 0.5 °C 0.1 °C 995.5 hPa ENE 38 km/h 48.3 km/h 97 % 2.54 mm
10:56 0.6 °C 0.1 °C 995.5 hPa ENE 36.7 km/h 48.1 km/h 97 % 2.54 mm
11:02 0.6 °C 0.1 °C 995.1 hPa ENE 32.8 km/h 53.8 km/h 97 % 2.54 mm
11:07 0.7 °C 0.2 °C 994.8 hPa ENE 34.4 km/h 49.9 km/h 97 % 2.54 mm
11:12 0.7 °C 0.3 °C 994.1 hPa ENE 33 km/h 46.3 km/h 97 % 2.29 mm
11:17 0.8 °C 0.4 °C 994.1 hPa ENE 39.3 km/h 46.7 km/h 97 % 2.54 mm
11:22 0.9 °C 0.5 °C 994.1 hPa East 39.4 km/h 50 km/h 97 % 2.54 mm
11:27 1 °C 0.6 °C 994.1 hPa NE 33.6 km/h 46.3 km/h 97 % 2.29 mm
11:32 1.1 °C 0.6 °C 993.5 hPa ENE 38.5 km/h 53.8 km/h 97 % 2.03 mm
11:34 1.1 °C 0.6 °C 993.5 hPa East 35.9 km/h 55.5 km/h 97 % 1.78 mm
11:39 1.2 °C 0.7 °C 993.8 hPa East 34.3 km/h 45.1 km/h 97 % 2.03 mm
11:44 1.2 °C 0.7 °C 993.1 hPa East 29.9 km/h 43.5 km/h 97 % 1.78 mm
11:49 1.3 °C 0.8 °C 992.8 hPa ENE 31.4 km/h 43.5 km/h 97 % 1.78 mm
11:54 1.2 °C 0.8 °C 992.4 hPa ENE 28.5 km/h 38.9 km/h 97 % 1.52 mm
11:59 1.3 °C 0.9 °C 992.4 hPa ENE 30.7 km/h 42.6 km/h 97 % 1.27 mm
12:04 1.3 °C 0.9 °C 992.4 hPa NE 24.8 km/h 40.7 km/h 97 % 1.52 mm
12:09 1.3 °C 0.9 °C 992.1 hPa NNE 29.5 km/h 42.6 km/h 97 % 1.27 mm
12:14 1.3 °C 0.9 °C 991.8 hPa East 22.5 km/h 29.6 km/h 97 % 1.02 mm
12:19 1.3 °C 0.9 °C 991.4 hPa ENE 22.7 km/h 31.5 km/h 97 % 1.27 mm
12:24 1.4 °C 0.9 °C 991.1 hPa NE 21.6 km/h 31.5 km/h 97 % 1.02 mm
12:29 1.4 °C 1 °C 990.7 hPa East 23 km/h 35.2 km/h 97 % 1.27 mm
12:34 1.4 °C 0.9 °C 990.4 hPa NE 18.3 km/h 31.5 km/h 97 % 1.27 mm
12:39 1.4 °C 1 °C 989.7 hPa NE 23.2 km/h 33.3 km/h 97 % 1.27 mm
12:44 1.4 °C 1 °C 989.4 hPa ENE 15.8 km/h 24.1 km/h 97 % 1.27 mm
12:49 1.4 °C 0.9 °C 989.4 hPa ENE 19.3 km/h 37 km/h 97 % 1.02 mm
12:54 1.4 °C 0.9 °C 989.1 hPa NE 17.9 km/h 27.8 km/h 97 % 1.27 mm
12:59 1.4 °C 0.9 °C 989.1 hPa ENE 13.8 km/h 29.6 km/h 97 % 1.27 mm
13:04 1.5 °C 1.1 °C 988.4 hPa NE 14.8 km/h 25.9 km/h 97 % 1.02 mm
13:09 1.6 °C 1.1 °C 987.7 hPa NE 21.6 km/h 40.7 km/h 97 % 1.27 mm
13:14 1.6 °C 1.3 °C 986.3 hPa NE 19.2 km/h 29.6 km/h 98 % 1.27 mm
13:19 1.5 °C 1.2 °C 986 hPa NNE 17.7 km/h 25.9 km/h 98 % 1.02 mm
13:24 1.5 °C 1.1 °C 986 hPa NNE 20.3 km/h 42.6 km/h 97 % 1.27 mm
13:29 1.5 °C 1.2 °C 986 hPa North 14.8 km/h 29.6 km/h 98 % 1.02 mm
13:34 1.5 °C 1.2 °C 986 hPa NE 20 km/h 31.5 km/h 98 % 1.02 mm
13:39 1.5 °C 1.2 °C 985.7 hPa NE 21.9 km/h 31.5 km/h 98 % 1.02 mm
13:44 1.5 °C 1.1 °C 985.3 hPa NNE 23.2 km/h 33.3 km/h 97 % 1.02 mm
13:49 1.6 °C 1.3 °C 985 hPa NNE 28.8 km/h 38.9 km/h 98 % 1.02 mm
13:54 1.6 °C 1.3 °C 984.6 hPa NNE 25.7 km/h 33.3 km/h 98 % 0.76 mm
13:59 1.6 °C 1.3 °C 984.3 hPa NNE 27.7 km/h 38.6 km/h 98 % 1.02 mm
14:04 1.6 °C 1.3 °C 985 hPa North 21.1 km/h 35.2 km/h 98 % 1.02 mm
14:09 1.7 °C 1.4 °C 983.6 hPa NNE 22.7 km/h 31.5 km/h 98 % 0.76 mm
14:14 1.7 °C 1.4 °C 984 hPa NNE 26.6 km/h 35.2 km/h 98 % 0.76 mm
14:19 1.7 °C 1.3 °C 983.3 hPa NE 25.4 km/h 42.6 km/h 97 % 0.76 mm
14:24 1.7 °C 1.3 °C 983.6 hPa NE 25.9 km/h 37 km/h 97 % 0.76 mm
14:29 1.7 °C 1.3 °C 983.6 hPa NNW 24.1 km/h 38.6 km/h 97 % 0.76 mm
14:34 1.7 °C 1.2 °C 983 hPa NNE 27.2 km/h 42.6 km/h 97 % 0.76 mm
14:39 1.7 °C 1.4 °C 982.6 hPa NNE 24.8 km/h 38.9 km/h 98 % 0.51 mm
14:44 1.7 °C 1.4 °C 981.9 hPa NNE 26.2 km/h 37 km/h 98 % 0.51 mm
14:49 1.7 °C 1.4 °C 981.9 hPa NNE 24.9 km/h 31.5 km/h 98 % 0.76 mm
14:55 1.7 °C 1.4 °C 981.6 hPa North 25.1 km/h 33.8 km/h 98 % 0.76 mm
15:00 1.6 °C 1.3 °C 982.3 hPa North 14.8 km/h 24.1 km/h 98 % 0.51 mm
15:05 1.6 °C 1.3 °C 982.3 hPa NNE 17.9 km/h 29.6 km/h 98 % 0.51 mm
15:10 1.6 °C 1.3 °C 982.3 hPa NNE 18.3 km/h 27.4 km/h 98 % 0.51 mm
15:15 1.5 °C 1.2 °C 982.3 hPa NNE 15 km/h 27.8 km/h 98 % 0.76 mm
15:20 1.5 °C 1.2 °C 981.9 hPa North 13.2 km/h 25.7 km/h 98 % 0.51 mm
15:25 1.4 °C 1.2 °C 981.9 hPa NNW 14.2 km/h 29 km/h 98 % 0.51 mm
15:30 1.3 °C 0.9 °C 981.9 hPa NNW 13 km/h 27.8 km/h 97 % 0.51 mm
15:35 1.3 °C 0.8 °C 981.6 hPa North 15.4 km/h 29.6 km/h 97 % 0.51 mm
15:40 1.2 °C 0.7 °C 981.3 hPa NNE 19.6 km/h 29.6 km/h 97 % 0.76 mm
15:45 1.1 °C 0.6 °C 981.6 hPa North 13 km/h 24.1 km/h 97 % 0.76 mm
15:50 1 °C 0.6 °C 982.3 hPa NNW 11.9 km/h 33.3 km/h 97 % 0.51 mm
15:55 0.9 °C 0.5 °C 982.6 hPa NNE 13.7 km/h 22.2 km/h 97 % 0.51 mm
16:00 0.9 °C 0.4 °C 983.3 hPa NNW 11.3 km/h 25.9 km/h 97 % 0.51 mm
16:05 0.8 °C 0.4 °C 983.6 hPa WNW 13.5 km/h 31.5 km/h 97 % 0.76 mm
16:10 0.7 °C 0.3 °C 983.6 hPa NW 12.2 km/h 33.3 km/h 97 % 0.76 mm
16:16 0.7 °C 0.2 °C 983.6 hPa NW 15.3 km/h 22.2 km/h 97 % 0.51 mm
16:21 0.6 °C 0.2 °C 983.6 hPa NNW 11.9 km/h 31.5 km/h 97 % 0.51 mm
16:26 0.6 °C 0.1 °C 983.6 hPa NW 13.8 km/h 24.1 km/h 97 % 0.51 mm
16:30 0.5 °C 0.1 °C 983.6 hPa WNW 12.9 km/h 24.1 km/h 97 % 0.76 mm
16:36 0.3 °C -0.2 °C 983.6 hPa WNW 10.6 km/h 24.1 km/h 97 % 0.76 mm
16:40 -0.1 °C -0.5 °C 984 hPa NW 14.5 km/h 35.2 km/h 97 % 0.51 mm
16:46 -0.3 °C -0.8 °C 984 hPa NW 16.3 km/h 40.7 km/h 97 % 0.51 mm
16:51 -0.5 °C -0.9 °C 984.3 hPa NNW 13.8 km/h 29.6 km/h 97 % 0.51 mm
16:56 -0.7 °C -1.1 °C 984.6 hPa NW 17.7 km/h 29.6 km/h 97 % 0.51 mm
17:01 -0.8 °C -1.2 °C 984.6 hPa West 15.6 km/h 29 km/h 97 % 0.51 mm
17:06 -1 °C -1.4 °C 985 hPa WNW 12.9 km/h 25.9 km/h 97 % 0.51 mm
17:11 -1.2 °C -1.6 °C 985.3 hPa West 9.3 km/h 25.9 km/h 97 % 0.51 mm
17:16 -1.3 °C -1.7 °C 985.7 hPa WNW 10.9 km/h 22.5 km/h 97 % 0.51 mm
17:21 -1.3 °C -1.7 °C 986 hPa NW 8.5 km/h 25.9 km/h 97 % 0.51 mm
17:26 -1.4 °C -2 °C 986 hPa WNW 17.1 km/h 33.3 km/h 96 % 0.51 mm
17:31 -1.5 °C -2.1 °C 986 hPa WNW 14.5 km/h 27.8 km/h 96 % 0.25 mm
17:36 -1.6 °C -2.1 °C 986 hPa NW 16.9 km/h 31.5 km/h 96 % 0.25 mm
17:41 -1.6 °C -2.2 °C 986.3 hPa NNW 14.5 km/h 35.2 km/h 96 % 0.25 mm
17:46 -1.7 °C -2.2 °C 986.7 hPa NNW 16.4 km/h 29.6 km/h 96 % 0.25 mm
17:51 -1.7 °C -2.3 °C 986.3 hPa WNW 24.9 km/h 42.6 km/h 96 % 0.25 mm
17:56 -1.8 °C -2.5 °C 986.7 hPa WNW 15.1 km/h 40.7 km/h 95 % 0.25 mm
18:01 -1.8 °C -2.6 °C 987.4 hPa WNW 14.5 km/h 31.5 km/h 95 % 0.51 mm
18:06 -1.8 °C -2.6 °C 986.7 hPa NNW 19.3 km/h 31.5 km/h 95 % 0.25 mm
18:11 -1.9 °C -2.6 °C 987 hPa West 16.1 km/h 33.3 km/h 95 % 0.25 mm
18:16 -1.9 °C -2.6 °C 987.4 hPa NW 14.8 km/h 22.2 km/h 95 % 0.25 mm
18:21 -1.9 °C -2.6 °C 987.7 hPa NW 13.8 km/h 27.8 km/h 95 % 0.25 mm
18:26 -1.9 °C -2.6 °C 988 hPa WNW 12.1 km/h 24.1 km/h 95 % 0.25 mm
18:31 -2 °C -2.7 °C 988.4 hPa West 17.5 km/h 27.8 km/h 95 % 0.25 mm
18:36 -1.9 °C -2.6 °C 988.4 hPa NNW 18.2 km/h 31.5 km/h 95 % 0.25 mm
18:41 -2 °C -2.8 °C 988.7 hPa NNW 17.4 km/h 37 km/h 94 % 0.25 mm
18:46 -1.9 °C -2.8 °C 989.1 hPa NW 15.3 km/h 31.5 km/h 94 % 0.25 mm
18:51 -1.9 °C -2.8 °C 989.4 hPa NW 17.1 km/h 25.9 km/h 94 % 0.25 mm
18:56 -1.9 °C -2.7 °C 989.4 hPa West 15.8 km/h 31.5 km/h 94 % 0.25 mm
19:01 -1.8 °C -2.8 °C 989.7 hPa WNW 16.7 km/h 24.1 km/h 93 % 0 mm
19:06 -1.8 °C -2.8 °C 989.7 hPa WNW 17.1 km/h 38.9 km/h 93 % 0 mm
19:11 -1.7 °C -2.7 °C 989.7 hPa West 11.1 km/h 35.4 km/h 93 % 0 mm
19:16 -1.7 °C -2.8 °C 990.4 hPa WNW 16.6 km/h 27.8 km/h 92 % 0.25 mm
19:21 -1.7 °C -2.8 °C 990.4 hPa NW 17.2 km/h 33.3 km/h 92 % 0.25 mm
19:26 -1.7 °C -2.9 °C 990.7 hPa WNW 15 km/h 29.6 km/h 91 % 0.25 mm
19:31 -1.6 °C -2.9 °C 991.1 hPa WNW 17.4 km/h 37 km/h 91 % 0.25 mm
19:36 -1.6 °C -3 °C 990.7 hPa WNW 14 km/h 31.5 km/h 90 % 0.25 mm
19:37 -1.5 °C -2.9 °C 990.7 hPa NNW 12.6 km/h 20.4 km/h 90 % 0.25 mm
19:42 -1.4 °C -2.9 °C 991.1 hPa NW 16.1 km/h 31.5 km/h 90 % 0.25 mm
19:47 -1.4 °C -2.8 °C 991.1 hPa WNW 14.6 km/h 35.2 km/h 90 % 0.25 mm
19:52 -1.3 °C -2.9 °C 991.1 hPa WNW 19.2 km/h 37 km/h 89 % 0.25 mm
19:57 -1.3 °C -2.8 °C 991.1 hPa WNW 17.5 km/h 30.6 km/h 89 % 0.25 mm
20:02 -1.2 °C -2.7 °C 991.1 hPa WNW 11.1 km/h 18.5 km/h 89 % 0.25 mm
20:07 -1.1 °C -2.8 °C 991.4 hPa NNW 9.7 km/h 35.2 km/h 88 % 0.25 mm
20:12 -1.1 °C -2.8 °C 991.4 hPa WNW 14.8 km/h 29 km/h 88 % 0.25 mm
20:17 -1 °C -2.7 °C 991.8 hPa West 17.2 km/h 20.9 km/h 88 % 0 mm
20:22 -0.9 °C -2.7 °C 991.8 hPa West 11.3 km/h 25.9 km/h 88 % 0 mm
20:27 -0.9 °C -2.8 °C 991.8 hPa NNW 18.3 km/h 27.8 km/h 87 % 0 mm
20:32 -0.8 °C -2.7 °C 992.1 hPa WNW 17.9 km/h 35.2 km/h 87 % 0 mm
20:37 -0.8 °C -2.7 °C 992.1 hPa WNW 12.4 km/h 33.3 km/h 87 % 0 mm
20:42 -0.8 °C -2.7 °C 992.4 hPa West 15.6 km/h 27.8 km/h 87 % 0 mm
20:48 -0.8 °C -2.7 °C 992.8 hPa West 7.2 km/h 18.5 km/h 87 % 0 mm
20:53 -0.8 °C -2.5 °C 992.8 hPa WNW 12.4 km/h 25.7 km/h 88 % 0 mm
20:58 -0.8 °C -2.5 °C 992.8 hPa WNW 11.6 km/h 33.3 km/h 88 % 0 mm
21:03 -0.8 °C -2.5 °C 992.8 hPa West 11.3 km/h 33.8 km/h 88 % 0 mm
21:08 -0.8 °C -2.4 °C 992.8 hPa NW 13.4 km/h 16.7 km/h 89 % 0 mm
21:13 -0.8 °C -2.4 °C 992.8 hPa NW 16.4 km/h 32.2 km/h 89 % 0 mm
21:18 -0.9 °C -2.8 °C 993.1 hPa West 8 km/h 27.4 km/h 87 % 0 mm
21:23 -0.9 °C -2.9 °C 993.5 hPa West 14.5 km/h 41.8 km/h 86 % 0 mm
21:28 -0.9 °C -3.2 °C 993.5 hPa West 19.3 km/h 37 km/h 85 % 0 mm
21:33 -1 °C -3.2 °C 993.8 hPa WNW 14.5 km/h 27.4 km/h 85 % 0 mm
21:38 -1 °C -3.2 °C 993.8 hPa West 8 km/h 20.9 km/h 85 % 0 mm
21:43 -1.1 °C -3.4 °C 994.1 hPa West 12.9 km/h 24.1 km/h 84 % 0 mm
21:48 -1.1 °C -3.6 °C 994.1 hPa West 11.9 km/h 18.5 km/h 83 % 0 mm
21:53 -1.2 °C -3.9 °C 994.5 hPa West 14.2 km/h 31.5 km/h 82 % 0 mm
21:58 -1.3 °C -4.2 °C 994.5 hPa SSW 16.4 km/h 22.2 km/h 81 % 0 mm
22:03 -1.5 °C -4.3 °C 994.8 hPa NW 11.6 km/h 22.5 km/h 81 % 0 mm
22:08 -1.7 °C -4.7 °C 994.8 hPa WSW 22.4 km/h 29.6 km/h 80 % 0 mm
22:13 -2 °C -5.3 °C 995.1 hPa West 19.3 km/h 35.4 km/h 78 % 0 mm
22:18 -2.3 °C -5.6 °C 995.1 hPa West 19.3 km/h 37 km/h 78 % 0 mm
22:23 -2.4 °C -5.6 °C 995.1 hPa West 11.3 km/h 37 km/h 79 % 0 mm
22:28 -2.7 °C -5.9 °C 994.8 hPa West 16.1 km/h 32.2 km/h 78 % 0 mm
22:33 -2.8 °C -6.3 °C 994.8 hPa West 20.9 km/h 40.2 km/h 77 % 0 mm
22:38 -2.9 °C -6.4 °C 995.1 hPa West 14.5 km/h 35.4 km/h 77 % 0 mm
22:43 -3.1 °C -6.5 °C 995.1 hPa WNW 12.9 km/h 37 km/h 77 % 0 mm
22:48 -3.2 °C -6.6 °C 995.1 hPa West 11.3 km/h 32.2 km/h 77 % 0 mm
22:53 -3.3 °C -6.9 °C 995.5 hPa WSW 20.9 km/h 37 km/h 76 % 0 mm
22:58 -3.4 °C -6.9 °C 995.5 hPa WNW 13.5 km/h 33.8 km/h 77 % 0 mm
23:03 -3.5 °C -6.9 °C 995.5 hPa West 9 km/h 16.7 km/h 77 % 0 mm
23:08 -3.6 °C -7.1 °C 995.5 hPa West 18.7 km/h 37 km/h 77 % 0 mm
23:13 -3.7 °C -7.2 °C 995.8 hPa West 14.2 km/h 22.2 km/h 77 % 0 mm
23:18 -3.8 °C -7.3 °C 995.8 hPa West 18.2 km/h 32.2 km/h 77 % 0 mm
23:23 -3.9 °C -7.5 °C 996.2 hPa WSW 20.1 km/h 31.5 km/h 76 % 0 mm
23:28 -4 °C -7.8 °C 996.5 hPa SW 20 km/h 29.6 km/h 75 % 0 mm
23:33 -4.1 °C -7.7 °C 996.5 hPa WSW 11.4 km/h 22.2 km/h 76 % 0 mm
23:38 -4.2 °C -8 °C 996.5 hPa WSW 17.1 km/h 35.4 km/h 75 % 0 mm
23:43 -4.3 °C -8.1 °C 996.8 hPa WNW 13.2 km/h 31.5 km/h 75 % 0 mm
23:48 -4.4 °C -8.2 °C 996.8 hPa West 12.6 km/h 22.2 km/h 75 % 0 mm
23:53 -4.4 °C -8.2 °C 996.8 hPa NW 11.9 km/h 27.8 km/h 75 % 0 mm
23:58 -4.5 °C -8.3 °C 996.5 hPa WSW 15.8 km/h 31.5 km/h 75 % 0 mm
Crab Meadow Weather
Compliments of Weather Underground - 3 mb

Script developed by  Jim McMurry - jmcmurry@mwt.net Adapted for the template by  Wim van der Kuil - Leuven-Template.eu

Recycling: Americans use 2,500,000 plastic bottles every hour! Most of them are thrown away!